Time;durP1;ratioP1;P1;durP2;ratioP2;P2;SDS_P1;SDS_P2;PMS_P1;PMS_P2;Temp;Humidity;BMP_temperature;BMP_pressure;BME280_temperature;BME280_humidity;BME280_pressure;Samples;Min_cycle;Max_cycle;Signal;HPM_P1;HPM_P2
2023/03/02 00:00:45;;;;;;;55.45;33.20;;;;;;;;;;5071423;28;20298;-76
2023/03/02 00:03:12;;;;;;;52.92;32.28;;;;;;;;;;5071938;28;20469;-77
2023/03/02 00:05:40;;;;;;;56.40;34.00;;;;;;;;;;5077783;28;20426;-77
2023/03/02 00:08:07;;;;;;;56.70;33.83;;;;;;;;;;5093929;28;20096;-77
2023/03/02 00:10:33;;;;;;;53.03;30.23;;;;;;;;;;5093988;28;20146;-77
2023/03/02 00:13:00;;;;;;;53.17;32.58;;;;;;;;;;5094654;28;20573;-77
2023/03/02 00:15:26;;;;;;;46.55;28.27;;;;;;;;;;5095080;28;20051;-77
2023/03/02 00:17:52;;;;;;;48.75;31.58;;;;;;;;;;5078982;28;20090;-77
2023/03/02 00:20:18;;;;;;;50.33;32.08;;;;;;;;;;5094263;28;20052;-77
2023/03/02 00:22:45;;;;;;;40.30;25.08;;;;;;;;;;5093914;28;20059;-77
2023/03/02 00:25:12;;;;;;;46.20;29.63;;;;;;;;;;5095723;28;20513;-76
2023/03/02 00:27:39;;;;;;;48.90;30.05;;;;;;;;;;5092674;28;20044;-77
2023/03/02 00:30:05;;;;;;;58.85;35.53;;;;;;;;;;5076175;28;20040;-76
2023/03/02 00:32:31;;;;;;;45.88;27.90;;;;;;;;;;5094619;28;20101;-77
2023/03/02 00:34:57;;;;;;;47.33;28.27;;;;;;;;;;5094719;28;20115;-77
2023/03/02 00:37:26;;;;;;;47.17;30.08;;;;;;;;;;5076752;28;20110;-76
2023/03/02 00:39:52;;;;;;;52.58;34.22;;;;;;;;;;5072592;28;20055;-76
2023/03/02 00:42:19;;;;;;;54.42;34.30;;;;;;;;;;5070256;28;20047;-76
2023/03/02 00:44:45;;;;;;;55.00;34.58;;;;;;;;;;5072485;28;20048;-76
2023/03/02 00:47:11;;;;;;;38.30;20.17;;;;;;;;;;5068372;28;20359;-76
2023/03/02 00:49:37;;;;;;;54.00;33.00;;;;;;;;;;5066882;28;20036;-76
2023/03/02 00:52:03;;;;;;;50.15;32.22;;;;;;;;;;5070692;28;20044;-76
2023/03/02 00:54:30;;;;;;;54.58;32.47;;;;;;;;;;5069165;28;20044;-76
2023/03/02 00:56:56;;;;;;;50.90;32.17;;;;;;;;;;5069805;28;20044;-76
2023/03/02 00:59:25;;;;;;;50.78;31.23;;;;;;;;;;5070660;28;20556;-77
2023/03/02 01:01:58;;;;;;;47.85;31.65;;;;;;;;;;5067695;28;20044;-77
2023/03/02 01:04:28;;;;;;;48.38;31.58;;;;;;;;;;5067681;28;20052;-77
2023/03/02 01:06:55;;;;;;;49.47;31.13;;;;;;;;;;5067971;28;20056;-77
2023/03/02 01:09:21;;;;;;;51.35;31.10;;;;;;;;;;5051235;28;20461;-77
2023/03/02 01:11:47;;;;;;;45.92;29.38;;;;;;;;;;5066762;28;20406;-77
2023/03/02 01:14:14;;;;;;;47.92;29.85;;;;;;;;;;5076541;28;20040;-77
2023/03/02 01:16:40;;;;;;;44.95;28.15;;;;;;;;;;5092860;28;20418;-77
2023/03/02 01:19:06;;;;;;;47.55;29.50;;;;;;;;;;5086003;28;20051;-77
2023/03/02 01:21:32;;;;;;;52.53;31.70;;;;;;;;;;5072240;28;20048;-77
2023/03/02 01:23:58;;;;;;;42.55;25.15;;;;;;;;;;5073600;28;20047;-77
2023/03/02 01:26:24;;;;;;;46.83;27.80;;;;;;;;;;5086071;28;20041;-77
2023/03/02 01:28:54;;;;;;;42.60;24.42;;;;;;;;;;5073475;28;20057;-77
2023/03/02 01:31:23;;;;;;;45.95;27.98;;;;;;;;;;5074041;28;20048;-77
2023/03/02 01:33:49;;;;;;;43.60;29.05;;;;;;;;;;5073705;28;20044;-77
2023/03/02 01:36:15;;;;;;;45.72;29.45;;;;;;;;;;5081941;28;20117;-77
2023/03/02 01:38:41;;;;;;;43.83;27.40;;;;;;;;;;5092348;28;20094;-77
2023/03/02 01:41:07;;;;;;;44.50;27.83;;;;;;;;;;5086824;28;20490;-76
2023/03/02 01:43:33;;;;;;;41.50;26.00;;;;;;;;;;5072973;28;20036;-77
2023/03/02 01:46:05;;;;;;;43.90;27.65;;;;;;;;;;5072714;28;20071;-76
2023/03/02 01:48:49;;;;;;;48.25;24.38;;;;;;;;;;5070714;28;20044;-77
2023/03/02 01:51:16;;;;;;;50.38;25.83;;;;;;;;;;5067326;28;20056;-76
2023/03/02 01:53:45;;;;;;;45.95;25.63;;;;;;;;;;5068508;28;20694;-77
2023/03/02 01:56:16;;;;;;;40.38;26.38;;;;;;;;;;5068470;28;20068;-77
2023/03/02 01:58:43;;;;;;;40.97;23.92;;;;;;;;;;5065708;28;20490;-77
2023/03/02 02:01:14;;;;;;;47.08;27.95;;;;;;;;;;5069965;28;20033;-77
2023/03/02 02:03:41;;;;;;;42.00;25.00;;;;;;;;;;5066915;28;20084;-77
2023/03/02 02:06:22;;;;;;;46.13;27.65;;;;;;;;;;5067827;28;20064;-77
2023/03/02 02:08:49;;;;;;;41.67;25.48;;;;;;;;;;5066072;28;20132;-77
2023/03/02 02:11:15;;;;;;;42.03;26.10;;;;;;;;;;5069665;28;20045;-77
2023/03/02 02:13:42;;;;;;;82.85;27.63;;;;;;;;;;5069867;28;20090;-78
2023/03/02 02:16:08;;;;;;;79.53;24.63;;;;;;;;;;5082296;28;20126;-77
2023/03/02 02:18:38;;;;;;;125.60;22.30;;;;;;;;;;5090770;28;20050;-76
2023/03/02 02:21:05;;;;;;;92.88;26.38;;;;;;;;;;5073253;28;20074;-78
2023/03/02 02:23:39;;;;;;;110.70;23.52;;;;;;;;;;5072638;28;20045;-78
2023/03/02 02:26:10;;;;;;;79.00;24.42;;;;;;;;;;5081872;28;20084;-77
2023/03/02 02:28:56;;;;;;;129.05;28.10;;;;;;;;;;5075307;28;20407;-77
2023/03/02 02:31:26;;;;;;;94.65;28.65;;;;;;;;;;5073302;28;20044;-77
2023/03/02 02:33:57;;;;;;;62.15;29.42;;;;;;;;;;5073337;28;20044;-77
2023/03/02 02:36:25;;;;;;;85.18;31.25;;;;;;;;;;5091779;28;20391;-77
2023/03/02 02:38:52;;;;;;;114.03;24.40;;;;;;;;;;5087341;28;20091;-77
2023/03/02 02:41:24;;;;;;;94.65;24.60;;;;;;;;;;5071954;28;20039;-77
2023/03/02 02:43:50;;;;;;;82.80;29.48;;;;;;;;;;5076998;28;20048;-77
2023/03/02 02:46:16;;;;;;;153.68;25.48;;;;;;;;;;5071947;28;20094;-77
2023/03/02 02:48:42;;;;;;;87.38;27.00;;;;;;;;;;5069709;28;20048;-77
2023/03/02 02:51:09;;;;;;;103.90;29.65;;;;;;;;;;5068280;28;20510;-77
2023/03/02 02:53:43;;;;;;;51.88;22.88;;;;;;;;;;5069198;28;20044;-77
2023/03/02 02:56:09;;;;;;;81.00;30.95;;;;;;;;;;5066184;28;20141;-77
2023/03/02 02:58:36;;;;;;;106.85;29.48;;;;;;;;;;5068067;28;20044;-77
2023/03/02 03:01:02;;;;;;;96.40;29.10;;;;;;;;;;5068325;28;20044;-77
2023/03/02 03:03:30;;;;;;;84.95;26.55;;;;;;;;;;5066126;28;20059;-77
2023/03/02 03:05:57;;;;;;;114.72;30.75;;;;;;;;;;5067580;28;20061;-77
2023/03/02 03:08:42;;;;;;;114.32;29.67;;;;;;;;;;5069994;28;20052;-76
2023/03/02 03:11:08;;;;;;;48.63;18.00;;;;;;;;;;5075615;28;20491;-77
2023/03/02 03:13:34;;;;;;;101.50;26.67;;;;;;;;;;5068938;28;20044;-77
2023/03/02 03:16:02;;;;;;;109.05;34.55;;;;;;;;;;5075192;28;20556;-77
2023/03/02 03:18:31;;;;;;;171.20;35.85;;;;;;;;;;5070831;28;20040;-77
2023/03/02 03:20:57;;;;;;;103.97;28.73;;;;;;;;;;5069781;28;20070;-77
2023/03/02 03:23:24;;;;;;;94.13;32.15;;;;;;;;;;5072252;28;20044;-77
2023/03/02 03:25:50;;;;;;;115.82;35.65;;;;;;;;;;5084749;28;20043;-77
2023/03/02 03:28:16;;;;;;;182.35;31.30;;;;;;;;;;5094712;28;20044;-77
2023/03/02 03:30:43;;;;;;;222.57;36.33;;;;;;;;;;5095826;28;20048;-77
2023/03/02 03:33:09;;;;;;;237.73;38.00;;;;;;;;;;5065914;28;20055;-78
2023/03/02 03:35:36;;;;;;;149.63;33.28;;;;;;;;;;5086542;28;20414;-78
2023/03/02 03:38:03;;;;;;;206.88;35.15;;;;;;;;;;5077518;28;20132;-77
2023/03/02 03:40:33;;;;;;;178.73;31.70;;;;;;;;;;5075376;28;20056;-78
2023/03/02 03:42:59;;;;;;;191.82;29.77;;;;;;;;;;5091141;28;20052;-77
2023/03/02 03:45:25;;;;;;;252.43;37.80;;;;;;;;;;5093073;28;20044;-78
2023/03/02 03:47:51;;;;;;;238.82;36.92;;;;;;;;;;5064914;28;20117;-77
2023/03/02 03:50:17;;;;;;;227.35;31.27;;;;;;;;;;5077858;28;20040;-77
2023/03/02 03:52:43;;;;;;;378.77;40.53;;;;;;;;;;5086925;28;20044;-77
2023/03/02 03:55:09;;;;;;;243.73;37.72;;;;;;;;;;5083834;28;20150;-77
2023/03/02 03:57:36;;;;;;;217.05;36.33;;;;;;;;;;5093704;28;20054;-77
2023/03/02 04:00:04;;;;;;;223.45;38.72;;;;;;;;;;5082971;28;20044;-77
2023/03/02 04:02:31;;;;;;;288.27;40.35;;;;;;;;;;5073615;28;20123;-77
2023/03/02 04:05:05;;;;;;;482.88;45.58;;;;;;;;;;5077955;28;20044;-77
2023/03/02 04:07:31;;;;;;;471.58;45.22;;;;;;;;;;5091125;28;20684;-79
2023/03/02 04:10:02;;;;;;;289.58;29.55;;;;;;;;;;5088899;28;20450;-77
2023/03/02 04:12:28;;;;;;;454.92;40.85;;;;;;;;;;5054446;28;20040;-77
2023/03/02 04:14:54;;;;;;;293.83;29.40;;;;;;;;;;5087956;28;20048;-77
2023/03/02 04:17:20;;;;;;;320.27;33.13;;;;;;;;;;5078030;28;20048;-77
2023/03/02 04:19:46;;;;;;;460.63;42.90;;;;;;;;;;5086982;28;20040;-77
2023/03/02 04:22:14;;;;;;;374.92;36.50;;;;;;;;;;5087686;28;20052;-77
2023/03/02 04:24:40;;;;;;;412.25;42.95;;;;;;;;;;5073351;28;20124;-77
2023/03/02 04:27:06;;;;;;;484.77;43.17;;;;;;;;;;5087740;28;20045;-77
2023/03/02 04:29:32;;;;;;;518.95;46.42;;;;;;;;;;5090996;28;20044;-76
2023/03/02 04:31:58;;;;;;;468.90;36.85;;;;;;;;;;5081460;28;20090;-77
2023/03/02 04:34:25;;;;;;;593.03;48.03;;;;;;;;;;5073032;28;20040;-77
2023/03/02 04:36:51;;;;;;;525.00;44.42;;;;;;;;;;5088741;28;20051;-77
2023/03/02 04:39:18;;;;;;;494.88;42.85;;;;;;;;;;5079443;28;20048;-77
2023/03/02 04:41:45;;;;;;;391.25;42.00;;;;;;;;;;5092377;28;20044;-77
2023/03/02 04:44:11;;;;;;;385.50;35.50;;;;;;;;;;5089694;28;20074;-77
2023/03/02 04:46:37;;;;;;;397.63;39.05;;;;;;;;;;5075951;28;20041;-77
2023/03/02 04:49:04;;;;;;;310.30;35.95;;;;;;;;;;5073530;28;20040;-77
2023/03/02 04:51:32;;;;;;;482.02;45.78;;;;;;;;;;5070125;28;20040;-77
2023/03/02 04:54:00;;;;;;;266.38;38.45;;;;;;;;;;5067848;28;20046;-77
2023/03/02 04:56:27;;;;;;;254.43;40.00;;;;;;;;;;5067570;28;20036;-77
2023/03/02 04:58:53;;;;;;;465.88;46.05;;;;;;;;;;5067756;28;20040;-77
2023/03/02 05:01:19;;;;;;;479.35;46.53;;;;;;;;;;5070269;28;20387;-77
2023/03/02 05:03:46;;;;;;;397.20;44.80;;;;;;;;;;5070006;28;20401;-77
2023/03/02 05:06:12;;;;;;;300.95;45.47;;;;;;;;;;5070547;28;20048;-77
2023/03/02 05:08:38;;;;;;;253.73;33.75;;;;;;;;;;5066347;28;20051;-77
2023/03/02 05:11:05;;;;;;;374.30;42.38;;;;;;;;;;5069569;28;20093;-77
2023/03/02 05:13:31;;;;;;;263.33;39.90;;;;;;;;;;5069569;28;20482;-77
2023/03/02 05:15:57;;;;;;;307.95;40.03;;;;;;;;;;5066942;28;20036;-77
2023/03/02 05:18:24;;;;;;;426.83;39.45;;;;;;;;;;5068767;28;20443;-77
2023/03/02 05:20:50;;;;;;;380.77;34.75;;;;;;;;;;5074138;28;20044;-76
2023/03/02 05:23:23;;;;;;;344.95;36.05;;;;;;;;;;5081037;28;20039;-77
2023/03/02 05:25:53;;;;;;;250.77;36.45;;;;;;;;;;5090192;28;20167;-77
2023/03/02 05:28:20;;;;;;;137.05;29.48;;;;;;;;;;5091534;28;20375;-77
2023/03/02 05:30:47;;;;;;;279.27;37.20;;;;;;;;;;5091092;28;20478;-77
2023/03/02 05:33:13;;;;;;;138.55;28.88;;;;;;;;;;5092648;28;20040;-77
2023/03/02 05:35:39;;;;;;;149.77;32.90;;;;;;;;;;5093649;28;20555;-77
2023/03/02 05:38:05;;;;;;;202.45;32.53;;;;;;;;;;5092601;28;20093;-77
2023/03/02 05:40:32;;;;;;;302.40;37.47;;;;;;;;;;5093441;28;20047;-76
2023/03/02 05:42:58;;;;;;;210.95;31.27;;;;;;;;;;5093722;28;20050;-77
2023/03/02 05:45:25;;;;;;;126.72;26.90;;;;;;;;;;5091552;28;20494;-77
2023/03/02 05:47:51;;;;;;;284.60;35.60;;;;;;;;;;5090156;28;20051;-77
2023/03/02 05:50:17;;;;;;;218.00;31.45;;;;;;;;;;5076710;28;20048;-77
2023/03/02 05:52:46;;;;;;;277.75;37.45;;;;;;;;;;5086748;28;20070;-77
2023/03/02 05:55:13;;;;;;;232.05;36.88;;;;;;;;;;5078504;28;20502;-77
2023/03/02 05:57:39;;;;;;;207.27;36.53;;;;;;;;;;5091318;28;20040;-77
2023/03/02 06:00:06;;;;;;;211.25;29.10;;;;;;;;;;5082335;28;20056;-77
2023/03/02 06:02:38;;;;;;;180.73;25.40;;;;;;;;;;5087977;28;20497;-76
2023/03/02 06:05:04;;;;;;;225.15;32.08;;;;;;;;;;5075546;28;20375;-77
2023/03/02 06:07:30;;;;;;;379.55;39.35;;;;;;;;;;5066979;28;20563;-77
2023/03/02 06:09:56;;;;;;;157.55;34.63;;;;;;;;;;5069401;28;20048;-76
2023/03/02 06:12:23;;;;;;;222.30;37.83;;;;;;;;;;5066306;28;20125;-76
2023/03/02 06:14:49;;;;;;;110.63;28.50;;;;;;;;;;5068070;28;22024;-76
2023/03/02 06:17:15;;;;;;;163.98;34.55;;;;;;;;;;5066497;28;20044;-76
2023/03/02 06:19:41;;;;;;;150.50;37.63;;;;;;;;;;5070151;28;20138;-77
2023/03/02 06:22:07;;;;;;;139.75;33.70;;;;;;;;;;5069485;28;20433;-76
2023/03/02 06:24:33;;;;;;;265.40;41.30;;;;;;;;;;5075189;28;20397;-76
2023/03/02 06:26:59;;;;;;;202.05;34.92;;;;;;;;;;5063795;28;20040;-77
2023/03/02 06:29:25;;;;;;;224.40;34.90;;;;;;;;;;5067859;28;20036;-76
2023/03/02 06:31:51;;;;;;;154.98;29.15;;;;;;;;;;5067163;28;20047;-76
2023/03/02 06:34:17;;;;;;;188.13;37.50;;;;;;;;;;5080084;28;20037;-77
2023/03/02 06:36:43;;;;;;;205.73;32.30;;;;;;;;;;5072156;28;20036;-79
2023/03/02 06:39:14;;;;;;;130.05;32.45;;;;;;;;;;5068313;28;20136;-76
2023/03/02 06:41:47;;;;;;;166.60;36.22;;;;;;;;;;5075946;28;20040;-77
2023/03/02 06:44:14;;;;;;;155.35;35.10;;;;;;;;;;5077966;28;20047;-77
2023/03/02 06:46:41;;;;;;;193.55;39.20;;;;;;;;;;5078769;28;20047;-77
2023/03/02 06:49:07;;;;;;;157.32;34.78;;;;;;;;;;5084069;28;20094;-77
2023/03/02 06:51:33;;;;;;;169.48;32.17;;;;;;;;;;5078940;28;20044;-77
2023/03/02 06:54:00;;;;;;;231.95;38.35;;;;;;;;;;5090273;28;20047;-77
2023/03/02 06:56:26;;;;;;;228.43;29.85;;;;;;;;;;5095162;28;20081;-77
2023/03/02 06:58:52;;;;;;;253.23;35.30;;;;;;;;;;5094013;28;20051;-77
2023/03/02 07:01:19;;;;;;;248.23;33.15;;;;;;;;;;5087296;28;20444;-77
2023/03/02 07:03:45;;;;;;;117.93;20.50;;;;;;;;;;5089958;28;20040;-77
2023/03/02 07:06:12;;;;;;;225.77;31.27;;;;;;;;;;5084629;28;20048;-77
2023/03/02 07:08:38;;;;;;;121.70;23.58;;;;;;;;;;5076318;28;20119;-76
2023/03/02 07:11:09;;;;;;;102.40;30.42;;;;;;;;;;5075563;28;20053;-77
2023/03/02 07:13:36;;;;;;;155.25;27.85;;;;;;;;;;5078991;28;20079;-77
2023/03/02 07:16:07;;;;;;;234.02;33.90;;;;;;;;;;5079379;28;20052;-77
2023/03/02 07:18:33;;;;;;;239.60;36.15;;;;;;;;;;5077560;28;20051;-77
2023/03/02 07:20:59;;;;;;;235.70;33.53;;;;;;;;;;5075150;28;20444;-77
2023/03/02 07:23:25;;;;;;;148.48;32.53;;;;;;;;;;5078113;28;20109;-76
2023/03/02 07:25:51;;;;;;;164.93;33.08;;;;;;;;;;5090647;28;20051;-77
2023/03/02 07:28:17;;;;;;;172.07;34.85;;;;;;;;;;5076988;28;20059;-77
2023/03/02 07:30:43;;;;;;;179.32;28.73;;;;;;;;;;5082842;28;20083;-76
2023/03/02 07:33:09;;;;;;;146.57;30.42;;;;;;;;;;5090741;28;20052;-77
2023/03/02 07:35:35;;;;;;;168.00;29.38;;;;;;;;;;5094645;28;20486;-77
2023/03/02 07:38:01;;;;;;;158.43;25.48;;;;;;;;;;5092324;28;20051;-77
2023/03/02 07:40:27;;;;;;;154.90;26.30;;;;;;;;;;5095147;28;20056;-77
2023/03/02 07:42:53;;;;;;;160.23;24.65;;;;;;;;;;5102752;28;20048;-77
2023/03/02 07:45:23;;;;;;;199.68;27.50;;;;;;;;;;5111385;28;20063;-76
2023/03/02 07:47:49;;;;;;;125.45;21.92;;;;;;;;;;5103637;28;20044;-77
2023/03/02 07:50:15;;;;;;;213.07;29.02;;;;;;;;;;5081923;28;20040;-77
2023/03/02 07:52:42;;;;;;;196.57;28.52;;;;;;;;;;5072041;28;20056;-77
2023/03/02 07:55:08;;;;;;;125.45;24.40;;;;;;;;;;5086613;28;20040;-76
2023/03/02 07:57:34;;;;;;;84.00;17.67;;;;;;;;;;5076405;28;20048;-77
2023/03/02 08:00:00;;;;;;;136.20;24.98;;;;;;;;;;5085615;28;20053;-77
2023/03/02 08:02:27;;;;;;;164.35;30.33;;;;;;;;;;5087767;28;20047;-77
2023/03/02 08:04:53;;;;;;;164.40;30.25;;;;;;;;;;5095107;28;20074;-78
2023/03/02 08:07:19;;;;;;;132.55;29.77;;;;;;;;;;5092550;28;20124;-77
2023/03/02 08:09:45;;;;;;;145.35;30.40;;;;;;;;;;5091503;28;20048;-77
2023/03/02 08:12:11;;;;;;;119.05;31.00;;;;;;;;;;5091001;28;20485;-77
2023/03/02 08:14:37;;;;;;;119.93;29.52;;;;;;;;;;5087878;28;20048;-77
2023/03/02 08:17:04;;;;;;;175.95;28.58;;;;;;;;;;5096563;28;20093;-78
2023/03/02 08:19:31;;;;;;;211.98;31.42;;;;;;;;;;5092072;28;20055;-78
2023/03/02 08:21:57;;;;;;;290.70;43.63;;;;;;;;;;5090993;28;20052;-78
2023/03/02 08:24:23;;;;;;;201.80;36.55;;;;;;;;;;5080675;28;20506;-77
2023/03/02 08:26:49;;;;;;;249.15;39.55;;;;;;;;;;5081169;28;20044;-77
2023/03/02 08:29:15;;;;;;;275.92;40.20;;;;;;;;;;5078724;28;20375;-78
2023/03/02 08:31:41;;;;;;;175.05;32.97;;;;;;;;;;5080788;28;20406;-77
2023/03/02 08:34:08;;;;;;;178.85;32.33;;;;;;;;;;5096476;28;20044;-77
2023/03/02 08:36:34;;;;;;;195.27;26.70;;;;;;;;;;5077036;28;20044;-78
2023/03/02 08:39:01;;;;;;;215.27;32.10;;;;;;;;;;5076678;28;20064;-78
2023/03/02 08:41:27;;;;;;;149.15;28.77;;;;;;;;;;5085717;28;20041;-77
2023/03/02 08:43:53;;;;;;;152.70;30.75;;;;;;;;;;5108662;28;20059;-77
2023/03/02 08:46:19;;;;;;;112.95;29.80;;;;;;;;;;5101891;28;20045;-77
2023/03/02 08:48:46;;;;;;;97.53;29.52;;;;;;;;;;5090800;28;20044;-77
2023/03/02 08:51:13;;;;;;;146.60;31.67;;;;;;;;;;5084536;28;20048;-77
2023/03/02 08:53:41;;;;;;;205.95;34.22;;;;;;;;;;5081185;28;20044;-78
2023/03/02 08:56:17;;;;;;;177.13;33.70;;;;;;;;;;5090529;28;20051;-78
2023/03/02 08:58:43;;;;;;;97.93;37.65;;;;;;;;;;5087651;28;20352;-78
2023/03/02 09:01:13;;;;;;;112.78;31.27;;;;;;;;;;5080149;28;20040;-78
2023/03/02 09:03:39;;;;;;;158.60;34.28;;;;;;;;;;5092476;28;20060;-77
2023/03/02 09:06:05;;;;;;;123.75;33.60;;;;;;;;;;5075557;28;20048;-78
2023/03/02 09:08:31;;;;;;;214.90;31.58;;;;;;;;;;5079275;28;20041;-77
2023/03/02 09:10:57;;;;;;;110.78;28.83;;;;;;;;;;5091060;28;20086;-77
2023/03/02 09:13:23;;;;;;;84.65;29.63;;;;;;;;;;5098599;28;20097;-77
2023/03/02 09:15:49;;;;;;;114.45;31.85;;;;;;;;;;5085292;28;20051;-78
2023/03/02 09:18:15;;;;;;;98.55;30.67;;;;;;;;;;5082657;28;20040;-78
2023/03/02 09:20:41;;;;;;;105.60;30.60;;;;;;;;;;5088456;28;20115;-78
2023/03/02 09:23:07;;;;;;;165.20;30.45;;;;;;;;;;5088714;28;20109;-78
2023/03/02 09:25:33;;;;;;;71.10;26.60;;;;;;;;;;5082970;28;20044;-77
2023/03/02 09:27:59;;;;;;;65.95;28.17;;;;;;;;;;5085846;28;20048;-78
2023/03/02 09:30:26;;;;;;;59.20;28.85;;;;;;;;;;5081262;28;20088;-77
2023/03/02 09:32:52;;;;;;;55.40;28.92;;;;;;;;;;5094098;28;20053;-77
2023/03/02 09:35:18;;;;;;;51.55;27.85;;;;;;;;;;5077909;28;20049;-77
2023/03/02 09:37:44;;;;;;;71.43;29.48;;;;;;;;;;5073477;28;20087;-77
2023/03/02 09:40:16;;;;;;;59.05;27.73;;;;;;;;;;5075047;28;20537;-77
2023/03/02 09:42:51;;;;;;;55.97;25.70;;;;;;;;;;5073825;28;20055;-77
2023/03/02 09:45:23;;;;;;;63.65;34.20;;;;;;;;;;5073516;28;20052;-77
2023/03/02 09:48:02;;;;;;;59.67;34.13;;;;;;;;;;5075281;28;20048;-77
2023/03/02 09:50:30;;;;;;;78.32;29.65;;;;;;;;;;5075294;28;20045;-77
2023/03/02 09:53:15;;;;;;;52.78;29.65;;;;;;;;;;5079798;28;20082;-77
2023/03/02 09:55:41;;;;;;;51.47;26.58;;;;;;;;;;5079328;28;20517;-82
2023/03/02 09:58:29;;;;;;;65.97;29.02;;;;;;;;;;5077291;28;20036;-82
2023/03/02 10:00:57;;;;;;;58.83;24.05;;;;;;;;;;5078355;28;20557;-83
2023/03/02 10:03:26;;;;;;;67.25;27.25;;;;;;;;;;5078150;28;20047;-82
2023/03/02 10:05:53;;;;;;;101.85;25.60;;;;;;;;;;5077586;28;20379;-82
2023/03/02 10:08:20;;;;;;;65.68;26.35;;;;;;;;;;5085944;28;20040;-85
2023/03/02 10:10:59;;;;;;;62.88;28.70;;;;;;;;;;5089126;28;20051;-82
2023/03/02 10:13:30;;;;;;;57.33;29.25;;;;;;;;;;5090441;28;20044;-77
2023/03/02 10:16:08;;;;;;;62.45;27.70;;;;;;;;;;5082802;28;20486;-77
2023/03/02 10:18:46;;;;;;;71.50;26.63;;;;;;;;;;5079720;28;20037;-77
2023/03/02 10:21:22;;;;;;;46.42;25.65;;;;;;;;;;5070978;28;20052;-77
2023/03/02 10:24:03;;;;;;;49.60;24.90;;;;;;;;;;5077111;28;20048;-77
2023/03/02 10:26:29;;;;;;;;;;;;;;;;;;5084029;28;20089;-77
2023/03/02 10:29:14;;;;;;;47.00;21.77;;;;;;;;;;5077572;28;20335;-77
2023/03/02 10:31:42;;;;;;;60.33;24.73;;;;;;;;;;5072323;28;20415;-77
2023/03/02 10:34:11;;;;;;;62.90;28.40;;;;;;;;;;5076104;28;20406;-77
2023/03/02 10:36:38;;;;;;;59.03;29.48;;;;;;;;;;5077770;28;20044;-77
2023/03/02 10:39:12;;;;;;;54.13;28.08;;;;;;;;;;5072354;28;20048;-77
2023/03/02 10:41:42;;;;;;;52.67;28.20;;;;;;;;;;5089814;28;20054;-78
2023/03/02 10:44:14;;;;;;;62.03;28.60;;;;;;;;;;5072317;28;20456;-77
2023/03/02 10:46:41;;;;;;;58.63;24.58;;;;;;;;;;5074000;28;20060;-77
2023/03/02 10:49:26;;;;;;;54.75;27.95;;;;;;;;;;5072890;28;20044;-78
2023/03/02 10:52:02;;;;;;;47.25;27.48;;;;;;;;;;5072264;28;20052;-77
2023/03/02 10:54:29;;;;;;;53.10;28.88;;;;;;;;;;5074775;28;20092;-77
2023/03/02 10:56:57;;;;;;;53.35;28.70;;;;;;;;;;5083389;28;20045;-77
2023/03/02 10:59:26;;;;;;;58.83;29.00;;;;;;;;;;5080854;28;20105;-77
2023/03/02 11:02:00;;;;;;;59.55;29.30;;;;;;;;;;5087763;28;20057;-77
2023/03/02 11:04:26;;;;;;;50.75;27.17;;;;;;;;;;5075269;28;20052;-78
2023/03/02 11:06:53;;;;;;;51.05;27.95;;;;;;;;;;5073201;28;20062;-77
2023/03/02 11:09:19;;;;;;;55.75;27.02;;;;;;;;;;5085910;28;20088;-78
2023/03/02 11:11:50;;;;;;;54.33;26.75;;;;;;;;;;5092426;28;20040;-78
2023/03/02 11:14:17;;;;;;;78.20;28.77;;;;;;;;;;5087646;28;20069;-77
2023/03/02 11:16:43;;;;;;;67.70;26.75;;;;;;;;;;5088653;28;20075;-77
2023/03/02 11:19:28;;;;;;;60.63;29.17;;;;;;;;;;5101260;28;20052;-77
2023/03/02 11:22:10;;;;;;;55.95;29.42;;;;;;;;;;5094303;28;20040;-77
2023/03/02 11:24:41;;;;;;;50.90;29.38;;;;;;;;;;5081138;28;20048;-77
2023/03/02 11:27:12;;;;;;;48.13;25.90;;;;;;;;;;5086653;28;20047;-76
2023/03/02 11:29:38;;;;;;;44.25;23.13;;;;;;;;;;5083293;28;20332;-77
2023/03/02 11:32:17;;;;;;;50.30;27.42;;;;;;;;;;5087535;28;20371;-77
2023/03/02 11:34:49;;;;;;;45.05;23.52;;;;;;;;;;5077926;28;20045;-77
2023/03/02 11:37:22;;;;;;;47.47;27.65;;;;;;;;;;5078140;28;20072;-76
2023/03/02 11:39:48;;;;;;;45.60;26.63;;;;;;;;;;5061822;28;20040;-77
2023/03/02 11:42:23;;;;;;;42.70;24.73;;;;;;;;;;5077454;28;20041;-77
2023/03/02 11:44:49;;;;;;;45.50;26.55;;;;;;;;;;5075168;28;20117;-77
2023/03/02 11:47:16;;;;;;;41.85;23.27;;;;;;;;;;5074536;28;20070;-77
2023/03/02 11:49:44;;;;;;;38.75;22.98;;;;;;;;;;5074212;28;20123;-77
2023/03/02 11:52:21;;;;;;;40.53;24.70;;;;;;;;;;5081398;28;20040;-77
2023/03/02 11:54:57;;;;;;;38.58;23.50;;;;;;;;;;5076494;28;20404;-77
2023/03/02 11:57:36;;;;;;;43.03;25.00;;;;;;;;;;5074955;28;20044;-77
2023/03/02 12:00:04;;;;;;;37.75;24.67;;;;;;;;;;5077314;28;20047;-77
2023/03/02 12:02:30;;;;;;;42.03;24.85;;;;;;;;;;5095709;28;20371;-77
2023/03/02 12:05:04;;;;;;;39.00;24.92;;;;;;;;;;5078330;28;20062;-77
2023/03/02 12:07:30;;;;;;;31.38;19.83;;;;;;;;;;5075299;28;20052;-77
2023/03/02 12:09:58;;;;;;;31.02;17.80;;;;;;;;;;5078026;28;20086;-77
2023/03/02 12:12:46;;;;;;;31.90;20.60;;;;;;;;;;5092213;28;20219;-76
2023/03/02 12:15:34;;;;;;;35.28;23.67;;;;;;;;;;5080558;28;20043;-77
2023/03/02 12:18:00;;;;;;;32.85;21.95;;;;;;;;;;5081742;28;20513;-77
2023/03/02 12:20:27;;;;;;;33.30;21.60;;;;;;;;;;5076750;28;20052;-78
2023/03/02 12:22:54;;;;;;;33.50;20.95;;;;;;;;;;5095974;28;20044;-77
2023/03/02 12:25:20;;;;;;;37.67;22.95;;;;;;;;;;5089693;28;20408;-77
2023/03/02 12:27:47;;;;;;;34.70;21.50;;;;;;;;;;5081439;28;20044;-77
2023/03/02 12:30:23;;;;;;;28.20;16.25;;;;;;;;;;5091604;28;20517;-77
2023/03/02 12:32:59;;;;;;;32.42;21.52;;;;;;;;;;5093456;28;20062;-77
2023/03/02 12:35:26;;;;;;;33.70;22.60;;;;;;;;;;5089753;28;20088;-76
2023/03/02 12:38:12;;;;;;;35.28;20.58;;;;;;;;;;5092024;28;20047;-76
2023/03/02 12:40:57;;;;;;;44.88;24.17;;;;;;;;;;5089782;28;20048;-78
2023/03/02 12:43:26;;;;;;;26.95;17.70;;;;;;;;;;5096005;28;20040;-77
2023/03/02 12:46:08;;;;;;;32.22;21.65;;;;;;;;;;5087208;28;20406;-77
2023/03/02 12:48:33;;;;;;;;;;;;;;;;;;5076560;28;20051;-79
2023/03/02 12:51:01;;;;;;;29.88;18.92;;;;;;;;;;5075115;28;19972;-77
2023/03/02 12:53:28;;;;;;;30.95;19.38;;;;;;;;;;5076334;28;20036;-76
2023/03/02 12:55:54;;;;;;;28.27;17.50;;;;;;;;;;5075303;28;20047;-77
2023/03/02 12:58:24;;;;;;;26.60;17.67;;;;;;;;;;5075310;28;20044;-77
2023/03/02 13:00:52;;;;;;;26.50;17.47;;;;;;;;;;5075066;28;20117;-78
2023/03/02 13:03:18;;;;;;;26.77;16.80;;;;;;;;;;5092211;28;20298;-77
2023/03/02 13:05:46;;;;;;;25.40;16.95;;;;;;;;;;5092621;28;20395;-77
2023/03/02 13:08:22;;;;;;;30.17;19.45;;;;;;;;;;5092529;28;20561;-77
2023/03/02 13:10:50;;;;;;;30.33;19.02;;;;;;;;;;5081118;28;20035;-78
2023/03/02 13:13:20;;;;;;;30.15;19.42;;;;;;;;;;5084279;28;20133;-77
2023/03/02 13:15:53;;;;;;;26.63;16.85;;;;;;;;;;5093865;28;20072;-75
2023/03/02 13:18:24;;;;;;;28.45;18.08;;;;;;;;;;5083802;28;20052;-78
2023/03/02 13:20:50;;;;;;;28.63;19.02;;;;;;;;;;5092081;28;20057;-78
2023/03/02 13:23:17;;;;;;;23.40;14.85;;;;;;;;;;5090799;28;20044;-78
2023/03/02 13:25:51;;;;;;;28.13;17.13;;;;;;;;;;5091723;28;20505;-78
2023/03/02 13:28:32;;;;;;;26.00;17.63;;;;;;;;;;5081522;28;20497;-78
2023/03/02 13:30:58;;;;;;;26.10;16.67;;;;;;;;;;5079822;28;20131;-78
2023/03/02 13:33:25;;;;;;;23.65;15.43;;;;;;;;;;5080705;28;20040;-77
2023/03/02 13:35:52;;;;;;;21.88;14.80;;;;;;;;;;5080489;28;20040;-78
2023/03/02 13:38:19;;;;;;;28.17;18.15;;;;;;;;;;5072533;28;20049;-76
2023/03/02 13:40:47;;;;;;;21.73;14.38;;;;;;;;;;5072607;28;20040;-78
2023/03/02 13:43:24;;;;;;;21.63;15.40;;;;;;;;;;5074435;28;20041;-78
2023/03/02 13:45:54;;;;;;;22.80;14.82;;;;;;;;;;5082277;28;20068;-77
2023/03/02 13:48:20;;;;;;;21.63;15.95;;;;;;;;;;5079627;28;20061;-78
2023/03/02 13:50:51;;;;;;;24.88;16.58;;;;;;;;;;5089624;28;20100;-78
2023/03/02 13:53:17;;;;;;;23.98;16.42;;;;;;;;;;5099116;28;20413;-78
2023/03/02 13:55:43;;;;;;;23.70;16.70;;;;;;;;;;5086932;28;20090;-78
2023/03/02 13:58:13;;;;;;;29.30;17.13;;;;;;;;;;5074372;28;20056;-78
2023/03/02 14:00:39;;;;;;;23.52;17.00;;;;;;;;;;5084020;28;20044;-78
2023/03/02 14:03:10;;;;;;;23.40;15.70;;;;;;;;;;5076219;28;20130;-78
2023/03/02 14:05:36;;;;;;;;;;;;;;;;;;5068873;28;20056;-77
2023/03/02 14:08:02;;;;;;;23.08;15.15;;;;;;;;;;5073350;28;19975;-78
2023/03/02 14:10:28;;;;;;;22.73;14.85;;;;;;;;;;5072001;28;20143;-77
2023/03/02 14:12:59;;;;;;;21.15;15.18;;;;;;;;;;5077529;28;20052;-78
2023/03/02 14:15:25;;;;;;;22.55;15.63;;;;;;;;;;5076037;28;20052;-76
2023/03/02 14:17:52;;;;;;;23.60;16.73;;;;;;;;;;5051689;28;20037;-79
2023/03/02 14:20:19;;;;;;;27.48;17.67;;;;;;;;;;5081735;28;20048;-78